sensor_id;sensor_type;location;lat;lon;timestamp;pressure;altitude;pressure_sealevel;temperature;humidity
67430;BME280;54298;52.076;5.264;2023-02-18T00:01:00;102108.0;;;11.34;86.69
67430;BME280;54298;52.076;5.264;2023-02-18T00:02:37;102113.0;;;11.08;87.76
67430;BME280;54298;52.076;5.264;2023-02-18T00:04:14;102113.0;;;11.17;87.6
67430;BME280;54298;52.076;5.264;2023-02-18T00:05:51;102116.0;;;11.26;87.24
67430;BME280;54298;52.076;5.264;2023-02-18T00:09:09;102116.0;;;11.13;87.89
67430;BME280;54298;52.076;5.264;2023-02-18T00:10:46;102116.0;;;11.03;88.47
67430;BME280;54298;52.076;5.264;2023-02-18T00:12:23;102107.0;;;10.99;88.51
67430;BME280;54298;52.076;5.264;2023-02-18T00:15:38;102105.0;;;10.97;88.68
67430;BME280;54298;52.076;5.264;2023-02-18T00:17:15;102111.0;;;10.93;88.98
67430;BME280;54298;52.076;5.264;2023-02-18T00:18:54;102113.0;;;10.9;89.17
67430;BME280;54298;52.076;5.264;2023-02-18T00:20:33;102106.0;;;10.93;89.27
67430;BME280;54298;52.076;5.264;2023-02-18T00:23:45;102106.0;;;10.91;89.22
67430;BME280;54298;52.076;5.264;2023-02-18T00:25:22;102097.0;;;10.89;89.72
67430;BME280;54298;52.076;5.264;2023-02-18T00:26:58;102107.0;;;10.78;90.04
67430;BME280;54298;52.076;5.264;2023-02-18T00:30:12;102105.0;;;10.84;89.94
67430;BME280;54298;52.076;5.264;2023-02-18T00:31:48;102105.0;;;10.76;90.32
67430;BME280;54298;52.076;5.264;2023-02-18T00:33:24;102105.0;;;10.8;90.51
67430;BME280;54298;52.076;5.264;2023-02-18T00:36:39;102100.0;;;10.83;90.34
67430;BME280;54298;52.076;5.264;2023-02-18T00:38:16;102101.0;;;10.84;90.14
67430;BME280;54298;52.076;5.264;2023-02-18T00:39:52;102093.0;;;10.79;90.35
67430;BME280;54298;52.076;5.264;2023-02-18T00:41:30;102094.0;;;10.72;90.67
67430;BME280;54298;52.076;5.264;2023-02-18T00:44:43;102092.0;;;10.59;91.21
67430;BME280;54298;52.076;5.264;2023-02-18T00:46:20;102095.0;;;10.69;90.86
67430;BME280;54298;52.076;5.264;2023-02-18T00:47:57;102091.0;;;10.64;90.92
67430;BME280;54298;52.076;5.264;2023-02-18T00:51:10;102088.0;;;10.7;90.53
67430;BME280;54298;52.076;5.264;2023-02-18T00:52:47;102087.0;;;10.49;91.32
67430;BME280;54298;52.076;5.264;2023-02-18T00:54:23;102085.0;;;10.58;90.77
67430;BME280;54298;52.076;5.264;2023-02-18T00:56:00;102083.0;;;10.51;91.08
67430;BME280;54298;52.076;5.264;2023-02-18T00:59:12;102075.0;;;10.5;91.24
67430;BME280;54298;52.076;5.264;2023-02-18T01:00:49;102080.0;;;10.52;91.09
67430;BME280;54298;52.076;5.264;2023-02-18T01:02:26;102078.0;;;10.57;90.84
67430;BME280;54298;52.076;5.264;2023-02-18T01:05:40;102073.0;;;10.6;90.62
67430;BME280;54298;52.076;5.264;2023-02-18T01:07:17;102069.0;;;10.6;90.6
67430;BME280;54298;52.076;5.264;2023-02-18T01:08:54;102074.0;;;10.49;90.91
67430;BME280;54298;52.076;5.264;2023-02-18T01:12:09;102070.0;;;10.31;91.59
67430;BME280;54298;52.076;5.264;2023-02-18T01:13:45;102074.0;;;10.21;92.22
67430;BME280;54298;52.076;5.264;2023-02-18T01:15:22;102078.0;;;10.27;92.15
67430;BME280;54298;52.076;5.264;2023-02-18T01:16:59;102082.0;;;10.29;92.05
67430;BME280;54298;52.076;5.264;2023-02-18T01:20:13;102072.0;;;10.28;91.99
67430;BME280;54298;52.076;5.264;2023-02-18T01:21:50;102076.0;;;10.24;92.36
67430;BME280;54298;52.076;5.264;2023-02-18T01:23:26;102076.0;;;10.24;92.4
67430;BME280;54298;52.076;5.264;2023-02-18T01:26:40;102075.0;;;10.23;92.39
67430;BME280;54298;52.076;5.264;2023-02-18T01:28:18;102080.0;;;10.25;92.51
67430;BME280;54298;52.076;5.264;2023-02-18T01:29:54;102080.0;;;10.23;92.65
67430;BME280;54298;52.076;5.264;2023-02-18T01:33:07;102078.0;;;10.17;93.02
67430;BME280;54298;52.076;5.264;2023-02-18T01:34:43;102069.0;;;10.19;92.98
67430;BME280;54298;52.076;5.264;2023-02-18T01:36:19;102060.0;;;10.15;93.22
67430;BME280;54298;52.076;5.264;2023-02-18T01:37:56;102051.0;;;10.13;93.43
67430;BME280;54298;52.076;5.264;2023-02-18T01:41:09;102047.0;;;10.1;93.69
67430;BME280;54298;52.076;5.264;2023-02-18T01:42:46;102043.0;;;10.11;93.6
67430;BME280;54298;52.076;5.264;2023-02-18T01:44:25;102045.0;;;10.17;93.25
67430;BME280;54298;52.076;5.264;2023-02-18T01:47:50;102041.0;;;10.13;93.63
67430;BME280;54298;52.076;5.264;2023-02-18T01:49:30;102038.0;;;10.23;93.25
67430;BME280;54298;52.076;5.264;2023-02-18T01:51:11;102040.0;;;10.32;92.88
67430;BME280;54298;52.076;5.264;2023-02-18T01:52:49;102043.0;;;10.23;93.27
67430;BME280;54298;52.076;5.264;2023-02-18T01:56:10;102042.0;;;10.28;92.95
67430;BME280;54298;52.076;5.264;2023-02-18T01:57:49;102037.0;;;10.3;92.97
67430;BME280;54298;52.076;5.264;2023-02-18T01:59:29;102032.0;;;10.26;93.29
67430;BME280;54298;52.076;5.264;2023-02-18T02:01:08;102037.0;;;10.26;93.52
67430;BME280;54298;52.076;5.264;2023-02-18T02:04:22;102032.0;;;10.3;93.27
67430;BME280;54298;52.076;5.264;2023-02-18T02:05:59;102030.0;;;10.16;93.88
67430;BME280;54298;52.076;5.264;2023-02-18T02:07:37;102027.0;;;10.3;93.54
67430;BME280;54298;52.076;5.264;2023-02-18T02:09:18;102018.0;;;10.18;94.27
67430;BME280;54298;52.076;5.264;2023-02-18T02:12:58;102016.0;;;10.31;93.94
67430;BME280;54298;52.076;5.264;2023-02-18T02:15:21;102014.0;;;10.35;93.82
67430;BME280;54298;52.076;5.264;2023-02-18T02:17:02;102002.0;;;10.36;93.82
67430;BME280;54298;52.076;5.264;2023-02-18T02:18:53;102002.0;;;10.46;93.37
67430;BME280;54298;52.076;5.264;2023-02-18T02:24:55;101994.0;;;10.53;93.16
67430;BME280;54298;52.076;5.264;2023-02-18T02:27:22;101983.0;;;10.52;93.29
67430;BME280;54298;52.076;5.264;2023-02-18T02:29:16;101973.0;;;10.49;93.62
67430;BME280;54298;52.076;5.264;2023-02-18T02:32:19;101962.0;;;10.51;93.93
67430;BME280;54298;52.076;5.264;2023-02-18T02:35:25;101961.0;;;10.5;93.86
67430;BME280;54298;52.076;5.264;2023-02-18T02:37:11;101953.0;;;10.51;94.2
67430;BME280;54298;52.076;5.264;2023-02-18T02:38:54;101949.0;;;10.51;94.41
67430;BME280;54298;52.076;5.264;2023-02-18T02:40:39;101937.0;;;10.54;94.25
67430;BME280;54298;52.076;5.264;2023-02-18T02:44:13;101925.0;;;10.56;94.41
67430;BME280;54298;52.076;5.264;2023-02-18T02:45:57;101917.0;;;10.65;94.08
67430;BME280;54298;52.076;5.264;2023-02-18T02:47:42;101912.0;;;10.69;94.16
67430;BME280;54298;52.076;5.264;2023-02-18T02:49:34;101909.0;;;10.57;94.33
67430;BME280;54298;52.076;5.264;2023-02-18T02:51:17;101905.0;;;10.68;94.16
67430;BME280;54298;52.076;5.264;2023-02-18T02:54:41;101902.0;;;10.69;94.24
67430;BME280;54298;52.076;5.264;2023-02-18T02:56:20;101900.0;;;10.71;94.02
67430;BME280;54298;52.076;5.264;2023-02-18T02:57:57;101900.0;;;10.78;93.8
67430;BME280;54298;52.076;5.264;2023-02-18T02:59:34;101888.0;;;10.61;94.6
67430;BME280;54298;52.076;5.264;2023-02-18T03:03:23;101886.0;;;10.6;95.02
67430;BME280;54298;52.076;5.264;2023-02-18T03:05:24;101883.0;;;10.61;95.29
67430;BME280;54298;52.076;5.264;2023-02-18T03:07:18;101880.0;;;10.6;95.18
67430;BME280;54298;52.076;5.264;2023-02-18T03:09:14;101877.0;;;10.55;95.71
67430;BME280;54298;52.076;5.264;2023-02-18T03:11:02;101865.0;;;10.56;96.03
67430;BME280;54298;52.076;5.264;2023-02-18T03:12:45;101874.0;;;10.59;95.78
67430;BME280;54298;52.076;5.264;2023-02-18T03:14:27;101876.0;;;10.6;95.84
67430;BME280;54298;52.076;5.264;2023-02-18T03:17:59;101876.0;;;10.62;95.78
67430;BME280;54298;52.076;5.264;2023-02-18T03:19:39;101876.0;;;10.68;95.32
67430;BME280;54298;52.076;5.264;2023-02-18T03:21:23;101870.0;;;10.62;95.72
67430;BME280;54298;52.076;5.264;2023-02-18T03:23:09;101864.0;;;10.68;95.48
67430;BME280;54298;52.076;5.264;2023-02-18T03:24:54;101866.0;;;10.6;95.97
67430;BME280;54298;52.076;5.264;2023-02-18T03:28:16;101863.0;;;10.76;95.43
67430;BME280;54298;52.076;5.264;2023-02-18T03:29:56;101857.0;;;10.79;95.16
67430;BME280;54298;52.076;5.264;2023-02-18T03:31:38;101851.0;;;10.84;94.66
67430;BME280;54298;52.076;5.264;2023-02-18T03:33:24;101841.0;;;10.84;94.44
67430;BME280;54298;52.076;5.264;2023-02-18T03:35:14;101840.0;;;10.72;94.56
67430;BME280;54298;52.076;5.264;2023-02-18T03:38:34;101831.0;;;10.84;94.26
67430;BME280;54298;52.076;5.264;2023-02-18T03:40:13;101827.0;;;10.75;94.48
67430;BME280;54298;52.076;5.264;2023-02-18T03:41:50;101825.0;;;10.84;94.23
67430;BME280;54298;52.076;5.264;2023-02-18T03:43:28;101819.0;;;10.74;94.69
67430;BME280;54298;52.076;5.264;2023-02-18T03:46:43;101820.0;;;10.75;94.82
67430;BME280;54298;52.076;5.264;2023-02-18T03:48:20;101805.0;;;10.7;95.07
67430;BME280;54298;52.076;5.264;2023-02-18T03:49:56;101799.0;;;10.75;94.99
67430;BME280;54298;52.076;5.264;2023-02-18T03:53:08;101797.0;;;10.83;94.9
67430;BME280;54298;52.076;5.264;2023-02-18T03:54:44;101802.0;;;10.8;95.22
67430;BME280;54298;52.076;5.264;2023-02-18T03:56:21;101797.0;;;10.86;95.19
67430;BME280;54298;52.076;5.264;2023-02-18T03:57:57;101796.0;;;10.74;95.44
67430;BME280;54298;52.076;5.264;2023-02-18T04:02:46;101783.0;;;10.75;95.63
67430;BME280;54298;52.076;5.264;2023-02-18T04:04:22;101783.0;;;10.9;95.44
67430;BME280;54298;52.076;5.264;2023-02-18T04:07:34;101784.0;;;10.9;95.43
67430;BME280;54298;52.076;5.264;2023-02-18T04:09:11;101780.0;;;10.82;95.6
67430;BME280;54298;52.076;5.264;2023-02-18T04:10:49;101777.0;;;10.85;95.93
67430;BME280;54298;52.076;5.264;2023-02-18T04:14:02;101774.0;;;10.89;96.16
67430;BME280;54298;52.076;5.264;2023-02-18T04:15:39;101773.0;;;10.8;96.22
67430;BME280;54298;52.076;5.264;2023-02-18T04:17:15;101783.0;;;10.74;96.91
67430;BME280;54298;52.076;5.264;2023-02-18T04:20:27;101777.0;;;10.66;97.36
67430;BME280;54298;52.076;5.264;2023-02-18T04:22:04;101772.0;;;10.75;97.4
67430;BME280;54298;52.076;5.264;2023-02-18T04:23:40;101767.0;;;10.81;97.12
67430;BME280;54298;52.076;5.264;2023-02-18T04:25:17;101757.0;;;10.79;96.98
67430;BME280;54298;52.076;5.264;2023-02-18T04:28:30;101768.0;;;10.73;97.58
67430;BME280;54298;52.076;5.264;2023-02-18T04:30:07;101757.0;;;10.75;97.48
67430;BME280;54298;52.076;5.264;2023-02-18T04:31:43;101751.0;;;10.65;97.6
67430;BME280;54298;52.076;5.264;2023-02-18T04:34:55;101757.0;;;10.7;97.76
67430;BME280;54298;52.076;5.264;2023-02-18T04:36:31;101755.0;;;10.71;97.55
67430;BME280;54298;52.076;5.264;2023-02-18T04:38:08;101762.0;;;10.68;97.6
67430;BME280;54298;52.076;5.264;2023-02-18T04:41:22;101755.0;;;10.68;97.7
67430;BME280;54298;52.076;5.264;2023-02-18T04:42:58;101752.0;;;10.61;98.02
67430;BME280;54298;52.076;5.264;2023-02-18T04:44:36;101756.0;;;10.69;97.56
67430;BME280;54298;52.076;5.264;2023-02-18T04:46:13;101755.0;;;10.75;96.96
67430;BME280;54298;52.076;5.264;2023-02-18T04:49:24;101738.0;;;10.75;97.01
67430;BME280;54298;52.076;5.264;2023-02-18T04:51:01;101724.0;;;10.78;96.64
67430;BME280;54298;52.076;5.264;2023-02-18T04:52:38;101726.0;;;10.69;97.13
67430;BME280;54298;52.076;5.264;2023-02-18T04:55:51;101730.0;;;10.61;97.07
67430;BME280;54298;52.076;5.264;2023-02-18T04:57:29;101719.0;;;10.6;97.32
67430;BME280;54298;52.076;5.264;2023-02-18T04:59:05;101713.0;;;10.64;97.25
67430;BME280;54298;52.076;5.264;2023-02-18T05:02:17;101709.0;;;10.61;97.15
67430;BME280;54298;52.076;5.264;2023-02-18T05:03:53;101715.0;;;10.55;97.49
67430;BME280;54298;52.076;5.264;2023-02-18T05:05:30;101714.0;;;10.55;97.59
67430;BME280;54298;52.076;5.264;2023-02-18T05:07:06;101720.0;;;10.54;97.65
67430;BME280;54298;52.076;5.264;2023-02-18T05:10:18;101718.0;;;10.63;97.43
67430;BME280;54298;52.076;5.264;2023-02-18T05:11:54;101722.0;;;10.6;97.2
67430;BME280;54298;52.076;5.264;2023-02-18T05:13:30;101730.0;;;10.58;97.43
67430;BME280;54298;52.076;5.264;2023-02-18T05:16:44;101728.0;;;10.62;97.42
67430;BME280;54298;52.076;5.264;2023-02-18T05:18:20;101726.0;;;10.64;97.32
67430;BME280;54298;52.076;5.264;2023-02-18T05:19:57;101720.0;;;10.52;97.83
67430;BME280;54298;52.076;5.264;2023-02-18T05:23:09;101726.0;;;10.49;98.21
67430;BME280;54298;52.076;5.264;2023-02-18T05:24:45;101713.0;;;10.56;97.82
67430;BME280;54298;52.076;5.264;2023-02-18T05:26:21;101717.0;;;10.55;97.91
67430;BME280;54298;52.076;5.264;2023-02-18T05:27:58;101711.0;;;10.57;97.75
67430;BME280;54298;52.076;5.264;2023-02-18T05:31:11;101705.0;;;10.56;98.01
67430;BME280;54298;52.076;5.264;2023-02-18T05:32:47;101703.0;;;10.57;97.98
67430;BME280;54298;52.076;5.264;2023-02-18T05:34:23;101701.0;;;10.53;98.11
67430;BME280;54298;52.076;5.264;2023-02-18T05:37:35;101698.0;;;10.55;98.01
67430;BME280;54298;52.076;5.264;2023-02-18T05:39:11;101697.0;;;10.6;97.97
67430;BME280;54298;52.076;5.264;2023-02-18T05:40:47;101694.0;;;10.59;97.96
67430;BME280;54298;52.076;5.264;2023-02-18T05:44:32;101697.0;;;10.51;98.0
67430;BME280;54298;52.076;5.264;2023-02-18T05:46:09;101695.0;;;10.39;98.63
67430;BME280;54298;52.076;5.264;2023-02-18T05:47:45;101684.0;;;10.42;98.81
67430;BME280;54298;52.076;5.264;2023-02-18T05:49:21;101674.0;;;10.51;98.5
67430;BME280;54298;52.076;5.264;2023-02-18T05:50:57;101688.0;;;10.44;98.39
67430;BME280;54298;52.076;5.264;2023-02-18T05:54:10;101689.0;;;10.48;98.22
67430;BME280;54298;52.076;5.264;2023-02-18T05:55:46;101689.0;;;10.49;98.03
67430;BME280;54298;52.076;5.264;2023-02-18T05:57:22;101691.0;;;10.51;98.07
67430;BME280;54298;52.076;5.264;2023-02-18T06:00:36;101680.0;;;10.5;98.04
67430;BME280;54298;52.076;5.264;2023-02-18T06:02:12;101677.0;;;10.48;98.18
67430;BME280;54298;52.076;5.264;2023-02-18T06:03:48;101665.0;;;10.58;97.74
67430;BME280;54298;52.076;5.264;2023-02-18T06:07:00;101666.0;;;10.62;97.43
67430;BME280;54298;52.076;5.264;2023-02-18T06:08:36;101673.0;;;10.49;97.76
67430;BME280;54298;52.076;5.264;2023-02-18T06:10:12;101671.0;;;10.5;98.04
67430;BME280;54298;52.076;5.264;2023-02-18T06:13:25;101680.0;;;10.56;98.03
67430;BME280;54298;52.076;5.264;2023-02-18T06:15:01;101674.0;;;10.59;97.56
67430;BME280;54298;52.076;5.264;2023-02-18T06:16:37;101684.0;;;10.73;97.11
67430;BME280;54298;52.076;5.264;2023-02-18T06:18:13;101681.0;;;10.76;96.6
67430;BME280;54298;52.076;5.264;2023-02-18T06:21:25;101680.0;;;10.76;96.73
67430;BME280;54298;52.076;5.264;2023-02-18T06:23:01;101678.0;;;10.79;96.3
67430;BME280;54298;52.076;5.264;2023-02-18T06:24:38;101678.0;;;10.71;96.73
67430;BME280;54298;52.076;5.264;2023-02-18T06:27:50;101680.0;;;10.73;96.73
67430;BME280;54298;52.076;5.264;2023-02-18T06:29:29;101684.0;;;10.61;97.09
67430;BME280;54298;52.076;5.264;2023-02-18T06:31:05;101688.0;;;10.6;97.45
67430;BME280;54298;52.076;5.264;2023-02-18T06:34:18;101689.0;;;10.68;97.4
67430;BME280;54298;52.076;5.264;2023-02-18T06:35:56;101681.0;;;10.59;97.84
67430;BME280;54298;52.076;5.264;2023-02-18T06:37:33;101684.0;;;10.62;97.54
67430;BME280;54298;52.076;5.264;2023-02-18T06:39:09;101678.0;;;10.61;97.8
67430;BME280;54298;52.076;5.264;2023-02-18T06:42:22;101677.0;;;10.59;97.63
67430;BME280;54298;52.076;5.264;2023-02-18T06:43:58;101674.0;;;10.66;97.41
67430;BME280;54298;52.076;5.264;2023-02-18T06:45:37;101670.0;;;10.59;97.58
67430;BME280;54298;52.076;5.264;2023-02-18T06:48:49;101680.0;;;10.55;97.8
67430;BME280;54298;52.076;5.264;2023-02-18T06:50:26;101677.0;;;10.57;97.78
67430;BME280;54298;52.076;5.264;2023-02-18T06:52:03;101685.0;;;10.58;97.55
67430;BME280;54298;52.076;5.264;2023-02-18T06:55:16;101673.0;;;10.52;97.85
67430;BME280;54298;52.076;5.264;2023-02-18T06:56:52;101681.0;;;10.54;97.67
67430;BME280;54298;52.076;5.264;2023-02-18T06:58:29;101686.0;;;10.64;97.06
67430;BME280;54298;52.076;5.264;2023-02-18T07:00:06;101687.0;;;10.54;97.49
67430;BME280;54298;52.076;5.264;2023-02-18T07:03:19;101687.0;;;10.55;97.33
67430;BME280;54298;52.076;5.264;2023-02-18T07:04:55;101683.0;;;10.57;97.0
67430;BME280;54298;52.076;5.264;2023-02-18T07:06:31;101672.0;;;10.59;96.89
67430;BME280;54298;52.076;5.264;2023-02-18T07:09:44;101674.0;;;10.63;96.53
67430;BME280;54298;52.076;5.264;2023-02-18T07:11:21;101677.0;;;10.6;96.26
67430;BME280;54298;52.076;5.264;2023-02-18T07:12:57;101682.0;;;10.64;96.23
67430;BME280;54298;52.076;5.264;2023-02-18T07:16:10;101675.0;;;10.69;95.87
67430;BME280;54298;52.076;5.264;2023-02-18T07:17:46;101675.0;;;10.71;95.47
67430;BME280;54298;52.076;5.264;2023-02-18T07:19:22;101670.0;;;10.59;95.82
67430;BME280;54298;52.076;5.264;2023-02-18T07:20:58;101675.0;;;10.54;95.82
67430;BME280;54298;52.076;5.264;2023-02-18T07:24:10;101685.0;;;10.58;96.02
67430;BME280;54298;52.076;5.264;2023-02-18T07:25:47;101676.0;;;10.48;96.33
67430;BME280;54298;52.076;5.264;2023-02-18T07:27:23;101678.0;;;10.49;96.61
67430;BME280;54298;52.076;5.264;2023-02-18T07:30:37;101675.0;;;10.52;96.04
67430;BME280;54298;52.076;5.264;2023-02-18T07:32:14;101683.0;;;10.49;95.65
67430;BME280;54298;52.076;5.264;2023-02-18T07:33:53;101681.0;;;10.55;95.32
67430;BME280;54298;52.076;5.264;2023-02-18T07:37:08;101675.0;;;10.5;95.12
67430;BME280;54298;52.076;5.264;2023-02-18T07:38:45;101670.0;;;10.53;94.64
67430;BME280;54298;52.076;5.264;2023-02-18T07:40:21;101680.0;;;10.5;94.6
67430;BME280;54298;52.076;5.264;2023-02-18T07:41:57;101675.0;;;10.44;94.53
67430;BME280;54298;52.076;5.264;2023-02-18T07:45:10;101675.0;;;10.46;94.02
67430;BME280;54298;52.076;5.264;2023-02-18T07:46:46;101671.0;;;10.48;93.64
67430;BME280;54298;52.076;5.264;2023-02-18T07:48:22;101660.0;;;10.42;93.45
67430;BME280;54298;52.076;5.264;2023-02-18T07:51:35;101676.0;;;10.53;92.91
67430;BME280;54298;52.076;5.264;2023-02-18T07:53:12;101670.0;;;10.56;92.25
67430;BME280;54298;52.076;5.264;2023-02-18T07:54:50;101675.0;;;10.57;92.0
67430;BME280;54298;52.076;5.264;2023-02-18T07:56:26;101672.0;;;10.62;91.63
67430;BME280;54298;52.076;5.264;2023-02-18T07:59:38;101671.0;;;10.63;91.24
67430;BME280;54298;52.076;5.264;2023-02-18T08:01:15;101677.0;;;10.56;91.02
67430;BME280;54298;52.076;5.264;2023-02-18T08:02:51;101680.0;;;10.55;90.84
67430;BME280;54298;52.076;5.264;2023-02-18T08:06:04;101682.0;;;10.56;90.33
67430;BME280;54298;52.076;5.264;2023-02-18T08:07:41;101681.0;;;10.52;90.28
67430;BME280;54298;52.076;5.264;2023-02-18T08:09:17;101687.0;;;10.49;90.49
67430;BME280;54298;52.076;5.264;2023-02-18T08:12:34;101694.0;;;10.56;90.2
67430;BME280;54298;52.076;5.264;2023-02-18T08:14:10;101696.0;;;10.47;90.47
67430;BME280;54298;52.076;5.264;2023-02-18T08:15:47;101695.0;;;10.43;90.52
67430;BME280;54298;52.076;5.264;2023-02-18T08:17:23;101681.0;;;10.38;90.74
67430;BME280;54298;52.076;5.264;2023-02-18T08:20:39;101689.0;;;10.34;90.4
67430;BME280;54298;52.076;5.264;2023-02-18T08:22:15;101698.0;;;10.27;90.55
67430;BME280;54298;52.076;5.264;2023-02-18T08:23:51;101695.0;;;10.41;90.33
67430;BME280;54298;52.076;5.264;2023-02-18T08:27:04;101701.0;;;10.28;90.49
67430;BME280;54298;52.076;5.264;2023-02-18T08:28:41;101705.0;;;10.23;90.87
67430;BME280;54298;52.076;5.264;2023-02-18T08:30:18;101691.0;;;10.25;91.13
67430;BME280;54298;52.076;5.264;2023-02-18T08:33:32;101699.0;;;10.14;91.07
67430;BME280;54298;52.076;5.264;2023-02-18T08:35:09;101694.0;;;10.19;91.1
67430;BME280;54298;52.076;5.264;2023-02-18T08:36:46;101691.0;;;10.26;90.82
67430;BME280;54298;52.076;5.264;2023-02-18T08:38:23;101703.0;;;10.19;90.96
67430;BME280;54298;52.076;5.264;2023-02-18T08:41:36;101699.0;;;10.15;91.02
67430;BME280;54298;52.076;5.264;2023-02-18T08:43:14;101699.0;;;10.14;91.16
67430;BME280;54298;52.076;5.264;2023-02-18T08:44:51;101692.0;;;10.21;90.98
67430;BME280;54298;52.076;5.264;2023-02-18T08:48:03;101697.0;;;10.17;90.59
67430;BME280;54298;52.076;5.264;2023-02-18T08:49:40;101692.0;;;10.14;90.35
67430;BME280;54298;52.076;5.264;2023-02-18T08:51:19;101687.0;;;10.16;90.61
67430;BME280;54298;52.076;5.264;2023-02-18T08:53:00;101690.0;;;10.22;90.31
67430;BME280;54298;52.076;5.264;2023-02-18T08:56:14;101694.0;;;10.14;90.44
67430;BME280;54298;52.076;5.264;2023-02-18T08:57:51;101701.0;;;10.0;90.46
67430;BME280;54298;52.076;5.264;2023-02-18T08:59:27;101697.0;;;10.08;90.56
67430;BME280;54298;52.076;5.264;2023-02-18T09:02:42;101701.0;;;10.09;90.52
67430;BME280;54298;52.076;5.264;2023-02-18T09:04:20;101709.0;;;10.11;90.74
67430;BME280;54298;52.076;5.264;2023-02-18T09:05:57;101696.0;;;10.07;90.57
67430;BME280;54298;52.076;5.264;2023-02-18T09:07:34;101705.0;;;10.15;90.0
67430;BME280;54298;52.076;5.264;2023-02-18T09:10:48;101706.0;;;10.21;90.25
67430;BME280;54298;52.076;5.264;2023-02-18T09:12:24;101711.0;;;10.25;89.45
67430;BME280;54298;52.076;5.264;2023-02-18T09:14:02;101706.0;;;10.41;89.41
67430;BME280;54298;52.076;5.264;2023-02-18T09:17:14;101707.0;;;10.31;89.47
67430;BME280;54298;52.076;5.264;2023-02-18T09:18:50;101720.0;;;10.28;89.04
67430;BME280;54298;52.076;5.264;2023-02-18T09:20:27;101721.0;;;10.23;89.33
67430;BME280;54298;52.076;5.264;2023-02-18T09:23:39;101720.0;;;10.34;89.12
67430;BME280;54298;52.076;5.264;2023-02-18T09:25:15;101707.0;;;10.23;88.56
67430;BME280;54298;52.076;5.264;2023-02-18T09:26:51;101705.0;;;10.26;88.97
67430;BME280;54298;52.076;5.264;2023-02-18T09:30:05;101705.0;;;10.28;88.93
67430;BME280;54298;52.076;5.264;2023-02-18T09:31:43;101719.0;;;10.27;88.31
67430;BME280;54298;52.076;5.264;2023-02-18T09:33:19;101716.0;;;10.34;88.35
67430;BME280;54298;52.076;5.264;2023-02-18T09:34:55;101715.0;;;10.32;88.12
67430;BME280;54298;52.076;5.264;2023-02-18T09:38:10;101712.0;;;10.24;87.59
67430;BME280;54298;52.076;5.264;2023-02-18T09:39:48;101728.0;;;10.21;87.83
67430;BME280;54298;52.076;5.264;2023-02-18T09:41:33;101718.0;;;10.38;87.54
67430;BME280;54298;52.076;5.264;2023-02-18T09:43:22;101727.0;;;10.43;86.98
67430;BME280;54298;52.076;5.264;2023-02-18T09:46:50;101727.0;;;10.51;86.65
67430;BME280;54298;52.076;5.264;2023-02-18T09:48:30;101736.0;;;10.57;86.42
67430;BME280;54298;52.076;5.264;2023-02-18T09:50:15;101731.0;;;10.49;85.91
67430;BME280;54298;52.076;5.264;2023-02-18T09:52:02;101733.0;;;10.44;86.18
67430;BME280;54298;52.076;5.264;2023-02-18T09:53:42;101731.0;;;10.52;86.03
67430;BME280;54298;52.076;5.264;2023-02-18T09:57:01;101738.0;;;10.56;85.76
67430;BME280;54298;52.076;5.264;2023-02-18T09:58:38;101727.0;;;10.51;85.62
67430;BME280;54298;52.076;5.264;2023-02-18T10:00:19;101727.0;;;10.63;85.32
67430;BME280;54298;52.076;5.264;2023-02-18T10:01:59;101737.0;;;10.61;85.31
67430;BME280;54298;52.076;5.264;2023-02-18T10:05:14;101733.0;;;10.6;85.29
67430;BME280;54298;52.076;5.264;2023-02-18T10:06:51;101735.0;;;10.54;85.3
67430;BME280;54298;52.076;5.264;2023-02-18T10:08:31;101739.0;;;10.56;85.23
67430;BME280;54298;52.076;5.264;2023-02-18T10:11:57;101731.0;;;10.63;85.24
67430;BME280;54298;52.076;5.264;2023-02-18T10:13:40;101732.0;;;10.64;85.17
67430;BME280;54298;52.076;5.264;2023-02-18T10:15:20;101728.0;;;10.73;85.03
67430;BME280;54298;52.076;5.264;2023-02-18T10:16:58;101752.0;;;10.69;84.84
67430;BME280;54298;52.076;5.264;2023-02-18T10:20:23;101745.0;;;10.7;84.83
67430;BME280;54298;52.076;5.264;2023-02-18T10:22:01;101740.0;;;10.77;84.95
67430;BME280;54298;52.076;5.264;2023-02-18T10:23:43;101749.0;;;10.83;84.82
67430;BME280;54298;52.076;5.264;2023-02-18T10:25:30;101752.0;;;10.87;84.66
67430;BME280;54298;52.076;5.264;2023-02-18T10:27:09;101748.0;;;10.91;84.14
67430;BME280;54298;52.076;5.264;2023-02-18T10:30:39;101751.0;;;11.0;83.82
67430;BME280;54298;52.076;5.264;2023-02-18T10:32:22;101755.0;;;11.02;83.87
67430;BME280;54298;52.076;5.264;2023-02-18T10:34:01;101756.0;;;10.98;83.66
67430;BME280;54298;52.076;5.264;2023-02-18T10:35:51;101755.0;;;11.0;83.95
67430;BME280;54298;52.076;5.264;2023-02-18T10:39:38;101752.0;;;10.99;84.16
67430;BME280;54298;52.076;5.264;2023-02-18T10:41:28;101767.0;;;11.11;83.45
67430;BME280;54298;52.076;5.264;2023-02-18T10:43:16;101764.0;;;11.11;83.25
67430;BME280;54298;52.076;5.264;2023-02-18T10:45:02;101760.0;;;11.02;83.47
67430;BME280;54298;52.076;5.264;2023-02-18T10:46:54;101771.0;;;11.13;83.65
67430;BME280;54298;52.076;5.264;2023-02-18T10:48:49;101766.0;;;11.16;83.18
67430;BME280;54298;52.076;5.264;2023-02-18T10:50:34;101762.0;;;11.16;83.08
67430;BME280;54298;52.076;5.264;2023-02-18T10:52:16;101761.0;;;11.17;83.34
67430;BME280;54298;52.076;5.264;2023-02-18T10:55:35;101767.0;;;11.2;83.31
67430;BME280;54298;52.076;5.264;2023-02-18T10:57:17;101770.0;;;11.21;83.24
67430;BME280;54298;52.076;5.264;2023-02-18T10:59:00;101760.0;;;11.25;83.27
67430;BME280;54298;52.076;5.264;2023-02-18T11:00:40;101765.0;;;11.27;83.02
67430;BME280;54298;52.076;5.264;2023-02-18T11:04:04;101763.0;;;11.28;83.33
67430;BME280;54298;52.076;5.264;2023-02-18T11:05:43;101758.0;;;11.32;83.07
67430;BME280;54298;52.076;5.264;2023-02-18T11:07:24;101769.0;;;11.41;82.87
67430;BME280;54298;52.076;5.264;2023-02-18T11:09:01;101758.0;;;11.49;82.49
67430;BME280;54298;52.076;5.264;2023-02-18T11:12:22;101755.0;;;11.58;82.58
67430;BME280;54298;52.076;5.264;2023-02-18T11:14:00;101757.0;;;11.68;82.23